createdAt,value
2017-09-05T00:00:06.984Z,0.00
2017-09-05T00:01:06.943Z,0.00
2017-09-05T00:02:06.902Z,0.00
2017-09-05T00:03:06.870Z,0.00
2017-09-05T00:04:06.916Z,0.00
2017-09-05T00:05:06.803Z,0.00
2017-09-05T00:06:06.773Z,0.00
2017-09-05T00:07:06.738Z,0.00
2017-09-05T00:08:06.708Z,0.00
2017-09-05T00:09:06.666Z,0.00
2017-09-05T00:10:06.631Z,0.00
2017-09-05T00:11:06.595Z,0.00
2017-09-05T00:12:06.557Z,0.00
2017-09-05T00:13:06.529Z,0.00
2017-09-05T00:14:06.496Z,0.00
2017-09-05T00:15:06.464Z,0.00
2017-09-05T00:16:06.466Z,0.00
2017-09-05T00:17:06.393Z,0.00
2017-09-05T00:18:06.360Z,0.00
2017-09-05T00:19:06.327Z,0.00
2017-09-05T00:20:06.287Z,0.00
2017-09-05T00:21:06.253Z,0.00
2017-09-05T00:22:06.223Z,0.00
2017-09-05T00:23:06.184Z,0.00
2017-09-05T00:24:06.145Z,0.00
2017-09-05T00:25:06.109Z,0.00
2017-09-05T00:26:06.078Z,0.00
2017-09-05T00:27:06.041Z,0.00
2017-09-05T00:28:06.005Z,0.00
2017-09-05T00:29:05.974Z,0.00
2017-09-05T00:30:05.941Z,0.00
2017-09-05T00:31:05.904Z,0.00
2017-09-05T00:32:05.866Z,0.00
2017-09-05T00:33:05.836Z,0.00
2017-09-05T00:34:05.801Z,0.00
2017-09-05T00:35:05.764Z,0.00
2017-09-05T00:36:05.730Z,0.00
2017-09-05T00:37:05.694Z,0.00
2017-09-05T00:38:05.662Z,0.00
2017-09-05T00:39:05.623Z,0.00
2017-09-05T00:40:05.591Z,0.00
2017-09-05T00:41:05.561Z,0.00
2017-09-05T00:42:05.523Z,0.00
2017-09-05T00:43:05.485Z,0.00
2017-09-05T00:44:05.457Z,0.00
2017-09-05T00:45:05.426Z,0.00
2017-09-05T00:46:05.386Z,0.00
2017-09-05T00:47:05.348Z,0.00
2017-09-05T00:48:05.312Z,0.00
2017-09-05T00:49:05.278Z,0.00
2017-09-05T00:50:05.247Z,0.00
2017-09-05T00:51:05.214Z,0.00
2017-09-05T00:52:05.172Z,0.00
2017-09-05T00:53:05.142Z,0.00
2017-09-05T00:54:05.102Z,0.00
2017-09-05T00:55:05.064Z,0.00
2017-09-05T00:56:05.039Z,0.00
2017-09-05T00:57:05.000Z,0.00
2017-09-05T00:58:04.967Z,0.00
2017-09-05T00:59:04.930Z,0.00
2017-09-05T01:00:04.893Z,0.00
2017-09-05T01:01:04.871Z,0.00
2017-09-05T01:02:04.855Z,0.00
2017-09-05T01:03:04.788Z,0.00
2017-09-05T01:04:04.755Z,0.00
2017-09-05T01:05:04.721Z,0.00
2017-09-05T01:06:04.689Z,0.00
2017-09-05T01:07:04.650Z,0.00
2017-09-05T01:08:04.615Z,0.00
2017-09-05T01:09:04.579Z,0.00
2017-09-05T01:10:04.581Z,0.00
2017-09-05T01:11:04.515Z,0.00
2017-09-05T01:12:04.479Z,0.00
2017-09-05T01:13:04.447Z,0.00
2017-09-05T01:14:04.405Z,0.00
2017-09-05T01:15:04.375Z,0.00
2017-09-05T01:16:04.332Z,0.00
2017-09-05T01:17:04.302Z,0.00
2017-09-05T01:18:04.264Z,0.00
2017-09-05T01:19:04.237Z,0.00
2017-09-05T01:20:04.195Z,0.00
2017-09-05T01:21:04.165Z,0.00
2017-09-05T01:22:04.124Z,0.00
2017-09-05T01:23:04.096Z,0.00
2017-09-05T01:24:04.063Z,0.00
2017-09-05T01:25:04.027Z,0.00
2017-09-05T01:26:03.989Z,0.00
2017-09-05T01:27:03.954Z,0.00
2017-09-05T01:28:03.911Z,0.00
2017-09-05T01:29:03.881Z,0.00
2017-09-05T01:30:03.852Z,0.00
2017-09-05T01:31:03.817Z,0.00
2017-09-05T01:32:03.779Z,0.00
2017-09-05T01:33:03.745Z,0.00
2017-09-05T01:34:03.712Z,0.00
2017-09-05T01:35:03.675Z,0.00
2017-09-05T01:36:03.640Z,0.00
2017-09-05T01:37:03.618Z,0.00
2017-09-05T01:38:03.573Z,0.00
2017-09-05T01:39:03.535Z,0.00
2017-09-05T01:40:03.502Z,0.00
2017-09-05T01:41:03.466Z,0.00
2017-09-05T01:42:03.425Z,0.00
2017-09-05T01:43:03.395Z,0.00
2017-09-05T01:44:03.361Z,0.00
2017-09-05T01:45:03.328Z,0.00
2017-09-05T01:46:03.297Z,0.00
2017-09-05T01:47:03.255Z,0.00
2017-09-05T01:48:03.223Z,0.00
2017-09-05T01:49:03.183Z,0.00
2017-09-05T01:50:03.155Z,0.00
2017-09-05T01:51:03.117Z,0.00
2017-09-05T01:52:03.083Z,0.00
2017-09-05T01:53:03.044Z,0.00
2017-09-05T01:54:03.011Z,0.00
2017-09-05T01:55:02.977Z,0.00
2017-09-05T01:56:02.941Z,0.00
2017-09-05T01:57:02.905Z,0.00
2017-09-05T01:58:02.876Z,0.00
2017-09-05T01:59:02.837Z,0.00
2017-09-05T02:00:02.809Z,0.00
2017-09-05T02:01:02.761Z,0.00
2017-09-05T02:02:02.742Z,0.00
2017-09-05T02:03:02.693Z,0.00
2017-09-05T02:04:02.661Z,0.00
2017-09-05T02:05:02.629Z,0.00
2017-09-05T02:06:02.587Z,0.00
2017-09-05T02:07:02.578Z,0.00
2017-09-05T02:08:02.523Z,0.00
2017-09-05T02:09:02.490Z,0.00
2017-09-05T02:10:02.452Z,0.00
2017-09-05T02:11:02.416Z,0.00
2017-09-05T02:12:02.379Z,0.00
2017-09-05T02:13:02.342Z,0.00
2017-09-05T02:14:02.311Z,0.00
2017-09-05T02:15:02.277Z,0.00
2017-09-05T02:16:02.234Z,0.00
2017-09-05T02:17:02.205Z,0.00
2017-09-05T02:18:02.172Z,0.00
2017-09-05T02:19:02.136Z,0.00
2017-09-05T02:20:02.091Z,0.00
2017-09-05T02:21:02.064Z,0.00
2017-09-05T02:22:02.028Z,0.00
2017-09-05T02:23:01.994Z,0.00
2017-09-05T02:24:01.952Z,0.00
2017-09-05T02:25:01.926Z,0.00
2017-09-05T02:26:01.891Z,0.00
2017-09-05T02:27:01.889Z,0.00
2017-09-05T02:28:01.816Z,0.00
2017-09-05T02:29:01.787Z,0.00
2017-09-05T02:30:01.744Z,0.00
2017-09-05T02:31:01.719Z,0.00
2017-09-05T02:32:01.674Z,0.00
2017-09-05T02:33:01.643Z,0.00
2017-09-05T02:34:01.606Z,0.00
2017-09-05T02:35:01.575Z,0.00
2017-09-05T02:36:01.540Z,0.00
2017-09-05T02:37:01.503Z,0.00
2017-09-05T02:38:01.466Z,0.00
2017-09-05T02:39:01.431Z,0.00
2017-09-05T02:40:01.396Z,0.00
2017-09-05T02:41:01.365Z,0.00
2017-09-05T02:42:01.325Z,0.00
2017-09-05T02:43:01.294Z,0.00
2017-09-05T02:44:01.258Z,0.00
2017-09-05T02:45:01.215Z,0.00
2017-09-05T02:46:01.184Z,0.00
2017-09-05T02:47:01.155Z,0.00
2017-09-05T02:48:01.110Z,0.00
2017-09-05T02:49:01.074Z,0.00
2017-09-05T02:50:01.044Z,0.00
2017-09-05T02:51:01.003Z,0.00
2017-09-05T02:52:00.979Z,0.00
2017-09-05T02:53:00.932Z,0.00
2017-09-05T02:54:00.907Z,0.00
2017-09-05T02:55:00.876Z,0.00
2017-09-05T02:56:00.827Z,0.00
2017-09-05T02:57:00.793Z,0.00
2017-09-05T02:58:00.762Z,0.00
2017-09-05T02:59:00.722Z,0.00
2017-09-05T03:00:00.704Z,0.00
2017-09-05T03:01:00.652Z,0.00
2017-09-05T03:02:00.621Z,0.00
2017-09-05T03:03:00.577Z,0.00
2017-09-05T03:04:00.550Z,0.00
2017-09-05T03:05:00.511Z,0.00
2017-09-05T03:06:00.478Z,0.00
2017-09-05T03:07:00.438Z,0.00
2017-09-05T03:08:00.408Z,0.00
2017-09-05T03:09:00.371Z,0.00
2017-09-05T03:10:00.333Z,0.00
2017-09-05T03:11:00.302Z,0.00
2017-09-05T03:12:00.262Z,0.00
2017-09-05T03:13:00.235Z,0.00
2017-09-05T03:14:00.193Z,0.00
2017-09-05T03:15:00.164Z,0.00
2017-09-05T03:16:00.121Z,0.00
2017-09-05T03:17:00.088Z,0.00
2017-09-05T03:18:00.047Z,0.00
2017-09-05T03:19:00.014Z,0.00
2017-09-05T03:19:59.985Z,0.00
2017-09-05T03:20:59.948Z,0.00
2017-09-05T03:21:59.913Z,0.00
2017-09-05T03:22:59.872Z,0.00
2017-09-05T03:23:59.844Z,0.00
2017-09-05T03:24:59.813Z,0.00
2017-09-05T03:25:59.782Z,0.00
2017-09-05T03:26:59.736Z,0.00
2017-09-05T03:27:59.698Z,0.00
2017-09-05T03:28:59.661Z,0.00
2017-09-05T03:29:59.624Z,0.00
2017-09-05T03:30:59.600Z,0.00
2017-09-05T03:31:59.553Z,0.00
2017-09-05T03:32:59.520Z,0.00
2017-09-05T03:33:59.480Z,0.00
2017-09-05T03:34:59.452Z,0.00
2017-09-05T03:35:59.415Z,0.00
2017-09-05T03:36:59.381Z,0.00
2017-09-05T03:37:59.342Z,0.00
2017-09-05T03:38:59.311Z,0.00
2017-09-05T03:39:59.269Z,4.00
2017-09-05T03:40:59.240Z,4.00
2017-09-05T03:41:59.201Z,0.00
2017-09-05T03:42:59.192Z,0.00
2017-09-05T03:43:59.130Z,4.00
2017-09-05T03:44:59.092Z,4.00
2017-09-05T03:45:59.057Z,0.00
2017-09-05T03:46:59.078Z,4.00
2017-09-05T03:47:58.982Z,0.00
2017-09-05T03:48:58.947Z,4.00
2017-09-05T03:49:58.912Z,4.00
2017-09-05T03:50:58.878Z,4.00
2017-09-05T03:51:58.844Z,4.00
2017-09-05T03:52:58.818Z,8.00
2017-09-05T03:53:58.772Z,8.00
2017-09-05T03:54:58.732Z,8.00
2017-09-05T03:55:58.737Z,12.00
2017-09-05T03:56:58.662Z,12.00
2017-09-05T03:57:58.626Z,12.00
2017-09-05T03:58:58.597Z,12.00
2017-09-05T03:59:58.565Z,16.00
2017-09-05T04:00:58.526Z,16.00
2017-09-05T04:01:58.493Z,24.00
2017-09-05T04:02:58.447Z,24.00
2017-09-05T04:03:58.413Z,28.00
2017-09-05T04:04:58.374Z,32.00
2017-09-05T04:05:58.342Z,32.00
2017-09-05T04:06:58.306Z,36.00
2017-09-05T04:07:58.281Z,40.00
2017-09-05T04:08:58.235Z,44.00
2017-09-05T04:09:58.202Z,48.00
2017-09-05T04:10:58.163Z,52.00
2017-09-05T04:11:58.127Z,64.00
2017-09-05T04:12:58.102Z,68.00
2017-09-05T04:13:58.059Z,80.00
2017-09-05T04:14:58.019Z,88.00
2017-09-05T04:15:57.993Z,100.00
2017-09-05T04:16:57.951Z,112.00
2017-09-05T04:17:57.915Z,132.00
2017-09-05T04:18:57.878Z,156.00
2017-09-05T04:19:57.842Z,184.00
2017-09-05T04:20:57.802Z,216.00
2017-09-05T04:21:57.774Z,256.00
2017-09-05T04:22:57.742Z,300.00
2017-09-05T04:23:57.702Z,352.00
2017-09-05T04:24:57.683Z,408.00
2017-09-05T04:25:57.633Z,472.00
2017-09-05T04:26:57.593Z,536.00
2017-09-05T04:27:57.558Z,612.00
2017-09-05T04:28:57.538Z,684.00
2017-09-05T04:29:57.483Z,760.00
2017-09-05T04:30:57.456Z,840.00
2017-09-05T04:31:57.414Z,928.00
2017-09-05T04:32:57.376Z,1016.00
2017-09-05T04:33:57.342Z,1108.00
2017-09-05T04:34:57.313Z,1212.00
2017-09-05T04:35:57.276Z,1312.00
2017-09-05T04:36:57.247Z,1416.00
2017-09-05T04:37:57.202Z,1524.00
2017-09-05T04:38:57.169Z,1640.00
2017-09-05T04:39:57.130Z,1808.00
2017-09-05T04:40:57.094Z,2216.00
2017-09-05T04:41:57.055Z,2744.00
2017-09-05T04:42:57.028Z,3436.00
2017-09-05T04:43:56.994Z,3568.00
2017-09-05T04:44:56.953Z,3500.00
2017-09-05T04:45:56.919Z,4236.00
2017-09-05T04:46:56.912Z,4368.00
2017-09-05T04:47:56.845Z,4516.00
2017-09-05T04:48:56.813Z,5444.00
2017-09-05T04:49:56.781Z,5172.00
2017-09-05T04:50:56.739Z,6384.00
2017-09-05T04:51:56.702Z,7128.00
2017-09-05T04:52:56.672Z,6648.00
2017-09-05T04:53:56.643Z,7528.00
2017-09-05T04:54:56.600Z,8088.00
2017-09-05T04:55:56.573Z,8132.00
2017-09-05T04:56:56.533Z,9108.00
2017-09-05T04:57:56.498Z,9240.00
2017-09-05T04:58:56.468Z,9732.00
2017-09-05T04:59:56.435Z,10848.00
2017-09-05T05:00:56.408Z,10944.00
2017-09-05T05:01:56.364Z,10688.00
2017-09-05T05:02:56.332Z,10912.00
2017-09-05T05:03:56.297Z,11200.00
2017-09-05T05:04:56.272Z,12416.00
2017-09-05T05:05:56.226Z,12832.00
2017-09-05T05:06:56.195Z,12960.00
2017-09-05T05:07:56.163Z,13120.00
2017-09-05T05:08:56.124Z,13088.00
2017-09-05T05:09:56.093Z,13344.00
2017-09-05T05:10:56.063Z,13568.00
2017-09-05T05:11:56.028Z,13600.00
2017-09-05T05:12:55.991Z,14240.00
2017-09-05T05:13:55.971Z,13920.00
2017-09-05T05:14:55.936Z,14720.00
2017-09-05T05:15:55.893Z,14944.00
2017-09-05T05:16:55.873Z,15072.00
2017-09-05T05:17:55.830Z,15456.00
2017-09-05T05:18:55.794Z,15552.00
2017-09-05T05:19:55.768Z,15808.00
2017-09-05T05:20:55.731Z,16608.00
2017-09-05T05:21:55.707Z,16640.00
2017-09-05T05:22:55.671Z,16128.00
2017-09-05T05:23:55.644Z,16352.00
2017-09-05T05:24:55.601Z,16800.00
2017-09-05T05:25:55.577Z,17024.00
2017-09-05T05:26:55.543Z,17312.00
2017-09-05T05:27:55.510Z,17760.00
2017-09-05T05:28:55.482Z,16928.00
2017-09-05T05:29:55.450Z,17824.00
2017-09-05T05:30:55.413Z,19392.00
2017-09-05T05:31:55.394Z,17888.00
2017-09-05T05:32:55.354Z,18112.00
2017-09-05T05:33:55.340Z,19424.00
2017-09-05T05:34:55.295Z,17344.00
2017-09-05T05:35:55.263Z,15744.00
2017-09-05T05:36:55.235Z,18688.00
2017-09-05T05:37:55.312Z,20352.00
2017-09-05T05:38:55.171Z,18528.00
2017-09-05T05:39:55.188Z,16960.00
2017-09-05T05:40:55.113Z,20320.00
2017-09-05T05:41:55.086Z,18720.00
2017-09-05T05:42:55.055Z,16320.00
2017-09-05T05:43:55.023Z,20512.00
2017-09-05T05:44:54.987Z,19584.00
2017-09-05T05:45:54.958Z,18880.00
2017-09-05T05:46:54.933Z,20448.00
2017-09-05T05:47:54.900Z,19360.00
2017-09-05T05:48:54.870Z,19232.00
2017-09-05T05:49:54.850Z,19264.00
2017-09-05T05:50:54.809Z,19264.00
2017-09-05T05:51:54.778Z,19232.00
2017-09-05T05:52:54.763Z,19392.00
2017-09-05T05:53:54.722Z,19104.00
2017-09-05T05:54:54.688Z,18688.00
2017-09-05T05:55:54.661Z,18752.00
2017-09-05T05:56:54.629Z,18624.00
2017-09-05T05:57:54.603Z,18560.00
2017-09-05T05:58:54.571Z,18752.00
2017-09-05T05:59:54.541Z,19040.00
2017-09-05T06:00:54.539Z,19296.00
2017-09-05T06:01:54.486Z,19328.00
2017-09-05T06:02:54.456Z,18912.00
2017-09-05T06:03:54.421Z,18816.00
2017-09-05T06:04:54.391Z,18720.00
2017-09-05T06:05:54.372Z,18880.00
2017-09-05T06:06:54.339Z,19040.00
2017-09-05T06:07:54.313Z,18784.00
2017-09-05T06:08:54.273Z,18528.00
2017-09-05T06:09:54.245Z,18560.00
2017-09-05T06:10:54.219Z,18304.00
2017-09-05T06:11:54.185Z,17696.00
2017-09-05T06:12:54.159Z,17312.00
2017-09-05T06:13:54.129Z,18176.00
2017-09-05T06:14:54.159Z,18720.00
2017-09-05T06:15:54.076Z,18624.00
2017-09-05T06:16:54.041Z,18144.00
2017-09-05T06:17:54.016Z,18144.00
2017-09-05T06:18:53.994Z,18464.00
2017-09-05T06:19:53.960Z,18400.00
2017-09-05T06:20:53.931Z,18464.00
2017-09-05T06:21:53.899Z,18432.00
2017-09-05T06:22:53.882Z,18432.00
2017-09-05T06:23:53.844Z,18304.00
2017-09-05T06:24:53.817Z,17952.00
2017-09-05T06:25:53.779Z,17600.00
2017-09-05T06:26:53.752Z,17600.00
2017-09-05T06:27:53.721Z,17728.00
2017-09-05T06:28:53.691Z,18144.00
2017-09-05T06:29:53.662Z,18112.00
2017-09-05T06:30:53.645Z,17568.00
2017-09-05T06:31:53.607Z,18240.00
2017-09-05T06:32:53.582Z,18784.00
2017-09-05T06:33:53.560Z,19168.00
2017-09-05T06:34:53.521Z,18560.00
2017-09-05T06:35:53.498Z,17824.00
2017-09-05T06:36:53.495Z,17760.00
2017-09-05T06:37:53.439Z,16672.00
2017-09-05T06:38:53.415Z,15360.00
2017-09-05T06:39:53.377Z,14396.00
2017-09-05T06:40:53.356Z,13672.00
2017-09-05T06:41:53.330Z,13128.00
2017-09-05T06:42:53.294Z,12824.00
2017-09-05T06:43:53.272Z,12300.00
2017-09-05T06:44:53.241Z,12128.00
2017-09-05T06:45:53.253Z,11724.00
2017-09-05T06:46:53.183Z,11412.00
2017-09-05T06:47:53.157Z,11388.00
2017-09-05T06:48:53.125Z,11396.00
2017-09-05T06:49:53.097Z,11584.00
2017-09-05T06:50:53.067Z,11608.00
2017-09-05T06:51:53.048Z,11420.00
2017-09-05T06:52:53.014Z,11412.00
2017-09-05T06:53:52.984Z,11520.00
2017-09-05T06:54:52.958Z,11548.00
2017-09-05T06:55:52.924Z,11324.00
2017-09-05T06:56:52.913Z,11160.00
2017-09-05T06:57:52.870Z,11200.00
2017-09-05T06:58:52.846Z,11252.00
2017-09-05T06:59:52.839Z,11108.00
2017-09-05T07:00:52.781Z,11156.00
2017-09-05T07:01:52.755Z,11284.00
2017-09-05T07:02:52.725Z,11212.00
2017-09-05T07:03:52.701Z,11108.00
2017-09-05T07:04:52.692Z,11012.00
2017-09-05T07:05:52.636Z,10972.00
2017-09-05T07:06:52.618Z,11012.00
2017-09-05T07:07:52.594Z,11016.00
2017-09-05T07:08:52.561Z,10680.00
2017-09-05T07:09:52.527Z,10368.00
2017-09-05T07:10:52.500Z,10320.00
2017-09-05T07:11:52.465Z,10340.00
2017-09-05T07:12:52.446Z,10344.00
2017-09-05T07:13:52.566Z,10316.00
2017-09-05T07:14:52.379Z,10296.00
2017-09-05T07:15:52.358Z,10256.00
2017-09-05T07:16:52.330Z,10240.00
2017-09-05T07:17:52.296Z,10208.00
2017-09-05T07:18:52.266Z,10188.00
2017-09-05T07:19:52.237Z,10148.00
2017-09-05T07:20:52.221Z,10120.00
2017-09-05T07:21:52.179Z,10048.00
2017-09-05T07:22:52.156Z,9980.00
2017-09-05T07:23:52.122Z,9912.00
2017-09-05T07:24:52.094Z,9892.00
2017-09-05T07:25:52.071Z,9840.00
2017-09-05T07:26:52.026Z,9808.00
2017-09-05T07:27:52.002Z,9800.00
2017-09-05T07:28:51.974Z,9792.00
2017-09-05T07:29:51.940Z,9768.00
2017-09-05T07:30:51.910Z,9744.00
2017-09-05T07:31:51.899Z,9740.00
2017-09-05T07:32:51.851Z,9760.00
2017-09-05T07:33:51.818Z,9748.00
2017-09-05T07:34:51.794Z,9720.00
2017-09-05T07:35:51.765Z,9704.00
2017-09-05T07:36:51.726Z,9704.00
2017-09-05T07:37:51.700Z,9684.00
2017-09-05T07:38:51.672Z,9668.00
2017-09-05T07:39:51.640Z,9636.00
2017-09-05T07:40:51.610Z,9580.00
2017-09-05T07:41:51.579Z,9544.00
2017-09-05T07:42:51.547Z,9488.00
2017-09-05T07:43:51.514Z,9428.00
2017-09-05T07:44:51.488Z,9336.00
2017-09-05T07:45:51.457Z,9276.00
2017-09-05T07:46:51.459Z,9236.00
2017-09-05T07:47:51.391Z,9204.00
2017-09-05T07:48:51.366Z,9204.00
2017-09-05T07:49:51.329Z,9160.00
2017-09-05T07:50:51.299Z,9168.00
2017-09-05T07:51:51.274Z,9148.00
2017-09-05T07:52:51.240Z,9096.00
2017-09-05T07:53:51.206Z,9064.00
2017-09-05T07:54:51.174Z,9032.00
2017-09-05T07:55:51.162Z,9012.00
2017-09-05T07:56:51.132Z,9028.00
2017-09-05T07:57:51.082Z,8988.00
2017-09-05T07:58:51.054Z,8992.00
2017-09-05T07:59:51.018Z,8984.00
2017-09-05T08:00:50.990Z,9008.00
2017-09-05T08:01:50.969Z,9016.00
2017-09-05T08:02:50.928Z,9008.00
2017-09-05T08:03:50.896Z,9008.00
2017-09-05T08:04:50.892Z,8988.00
2017-09-05T08:05:50.831Z,8964.00
2017-09-05T08:06:50.802Z,8908.00
2017-09-05T08:07:50.765Z,8860.00
2017-09-05T08:08:50.752Z,8824.00
2017-09-05T08:09:50.712Z,8924.00
2017-09-05T08:10:50.675Z,9008.00
2017-09-05T08:11:50.652Z,9036.00
2017-09-05T08:12:50.621Z,9028.00
2017-09-05T08:13:50.590Z,9004.00
2017-09-05T08:14:50.556Z,9000.00
2017-09-05T08:15:50.535Z,9000.00
2017-09-05T08:16:50.486Z,8936.00
2017-09-05T08:17:50.460Z,8872.00
2017-09-05T08:18:50.434Z,8772.00
2017-09-05T08:19:50.404Z,8840.00
2017-09-05T08:20:50.361Z,8812.00
2017-09-05T08:21:50.335Z,8880.00
2017-09-05T08:22:50.301Z,8952.00
2017-09-05T08:23:51.089Z,8940.00
2017-09-05T08:24:50.236Z,8876.00
2017-09-05T08:25:50.214Z,8792.00
2017-09-05T08:26:50.169Z,8760.00
2017-09-05T08:27:50.148Z,8724.00
2017-09-05T08:28:50.117Z,8732.00
2017-09-05T08:29:50.089Z,8716.00
2017-09-05T08:30:50.058Z,8736.00
2017-09-05T08:31:50.022Z,8808.00
2017-09-05T08:32:49.996Z,8804.00
2017-09-05T08:33:49.957Z,8812.00
2017-09-05T08:34:49.963Z,8820.00
2017-09-05T08:35:49.894Z,8796.00
2017-09-05T08:36:49.870Z,8752.00
2017-09-05T08:37:49.837Z,8796.00
2017-09-05T08:38:49.805Z,8724.00
2017-09-05T08:39:49.771Z,8696.00
2017-09-05T08:40:49.748Z,8556.00
2017-09-05T08:41:49.703Z,8524.00
2017-09-05T08:42:49.676Z,8512.00
2017-09-05T08:43:49.641Z,8476.00
2017-09-05T08:44:49.611Z,8464.00
2017-09-05T08:45:49.587Z,8448.00
2017-09-05T08:46:49.557Z,8420.00
2017-09-05T08:47:49.521Z,8356.00
2017-09-05T08:48:49.491Z,8400.00
2017-09-05T08:49:49.463Z,8372.00
2017-09-05T08:50:49.429Z,8412.00
2017-09-05T08:51:49.398Z,8480.00
2017-09-05T08:52:49.356Z,8500.00
2017-09-05T08:53:49.330Z,8528.00
2017-09-05T08:54:49.302Z,8412.00
2017-09-05T08:55:49.278Z,8428.00
2017-09-05T08:56:49.301Z,8388.00
2017-09-05T08:57:49.206Z,8356.00
2017-09-05T08:58:49.178Z,8280.00
2017-09-05T08:59:49.142Z,8184.00
2017-09-05T09:00:49.118Z,8132.00
2017-09-05T09:01:49.078Z,8264.00
2017-09-05T09:02:49.047Z,8216.00
2017-09-05T09:03:49.019Z,8020.00
2017-09-05T09:04:48.993Z,8148.00
2017-09-05T09:05:48.975Z,8152.00
2017-09-05T09:06:48.924Z,8092.00
2017-09-05T09:07:48.899Z,8344.00
2017-09-05T09:08:48.864Z,8300.00
2017-09-05T09:09:48.839Z,8316.00
2017-09-05T09:10:48.805Z,8324.00
2017-09-05T09:11:48.773Z,8300.00
2017-09-05T09:12:48.737Z,8268.00
2017-09-05T09:13:48.725Z,8236.00
2017-09-05T09:14:48.681Z,8220.00
2017-09-05T09:15:48.657Z,8200.00
2017-09-05T09:16:48.620Z,8172.00
2017-09-05T09:17:48.598Z,8168.00
2017-09-05T09:18:48.553Z,8164.00
2017-09-05T09:19:48.528Z,8160.00
2017-09-05T09:20:48.499Z,8192.00
2017-09-05T09:21:48.471Z,8200.00
2017-09-05T09:22:48.435Z,8168.00
2017-09-05T09:23:48.405Z,8144.00
2017-09-05T09:24:48.371Z,8152.00
2017-09-05T09:25:48.359Z,8160.00
2017-09-05T09:26:48.313Z,8168.00
2017-09-05T09:27:48.286Z,8164.00
2017-09-05T09:28:48.272Z,8192.00
2017-09-05T09:29:48.230Z,8220.00
2017-09-05T09:30:48.190Z,8172.00
2017-09-05T09:31:48.173Z,8152.00
2017-09-05T09:32:48.133Z,8116.00
2017-09-05T09:33:48.655Z,8144.00
2017-09-05T09:34:48.071Z,8120.00
2017-09-05T09:35:48.687Z,8124.00
2017-09-05T09:36:48.011Z,8140.00
2017-09-05T09:37:47.973Z,8120.00
2017-09-05T09:38:47.947Z,8152.00
2017-09-05T09:39:47.920Z,8168.00
2017-09-05T09:40:47.885Z,8164.00
2017-09-05T09:41:47.856Z,8128.00
2017-09-05T09:42:47.839Z,8128.00
2017-09-05T09:43:47.805Z,8152.00
2017-09-05T09:44:47.855Z,8204.00
2017-09-05T09:45:47.728Z,8176.00
2017-09-05T09:46:47.702Z,8204.00
2017-09-05T09:47:47.673Z,8160.00
2017-09-05T09:48:47.648Z,8096.00
2017-09-05T09:49:47.612Z,8152.00
2017-09-05T09:50:47.645Z,8184.00
2017-09-05T09:51:47.543Z,8204.00
2017-09-05T09:52:47.606Z,8224.00
2017-09-05T09:53:47.485Z,8256.00
2017-09-05T09:54:47.464Z,8236.00
2017-09-05T09:55:47.428Z,8228.00
2017-09-05T09:56:47.406Z,8220.00
2017-09-05T09:57:47.365Z,8264.00
2017-09-05T09:58:47.329Z,8248.00
2017-09-05T09:59:47.306Z,8256.00
2017-09-05T10:00:47.274Z,8312.00
2017-09-05T10:01:47.253Z,8364.00
2017-09-05T10:02:47.226Z,8408.00
2017-09-05T10:03:47.292Z,8384.00
2017-09-05T10:04:47.150Z,8364.00
2017-09-05T10:05:47.120Z,8288.00
2017-09-05T10:06:47.088Z,8220.00
2017-09-05T10:07:47.061Z,8300.00
2017-09-05T10:08:47.028Z,8264.00
2017-09-05T10:09:46.995Z,8276.00
2017-09-05T10:10:47.005Z,8244.00
2017-09-05T10:11:46.945Z,8020.00
2017-09-05T10:12:46.947Z,7816.00
2017-09-05T10:13:46.882Z,7708.00
2017-09-05T10:14:46.851Z,7804.00
2017-09-05T10:15:46.911Z,7736.00
2017-09-05T10:16:46.785Z,7972.00
2017-09-05T10:17:46.775Z,7996.00
2017-09-05T10:18:46.729Z,8080.00
2017-09-05T10:19:46.702Z,8084.00
2017-09-05T10:20:46.670Z,8276.00
2017-09-05T10:21:46.638Z,8356.00
2017-09-05T10:22:46.618Z,8448.00
2017-09-05T10:23:46.572Z,8520.00
2017-09-05T10:24:46.544Z,8488.00
2017-09-05T10:25:46.526Z,8612.00
2017-09-05T10:26:46.500Z,8464.00
2017-09-05T10:27:46.453Z,8776.00
2017-09-05T10:28:46.427Z,8920.00
2017-09-05T10:29:46.395Z,8816.00
2017-09-05T10:30:46.366Z,8772.00
2017-09-05T10:31:46.335Z,8984.00
2017-09-05T10:32:46.316Z,9056.00
2017-09-05T10:33:46.283Z,8996.00
2017-09-05T10:34:46.256Z,9028.00
2017-09-05T10:35:46.228Z,9084.00
2017-09-05T10:36:46.203Z,9092.00
2017-09-05T10:37:46.159Z,8952.00
2017-09-05T10:38:46.171Z,8832.00
2017-09-05T10:39:46.099Z,8732.00
2017-09-05T10:40:46.068Z,8704.00
2017-09-05T10:41:46.039Z,8504.00
2017-09-05T10:42:46.004Z,8288.00
2017-09-05T10:43:46.010Z,7780.00
2017-09-05T10:44:45.963Z,7944.00
2017-09-05T10:45:45.922Z,8196.00
2017-09-05T10:46:45.883Z,7924.00
2017-09-05T10:47:45.868Z,7916.00
2017-09-05T10:48:45.828Z,7900.00
2017-09-05T10:49:45.801Z,7956.00
2017-09-05T10:50:45.767Z,7944.00
2017-09-05T10:51:45.744Z,8056.00
2017-09-05T10:52:45.760Z,8116.00
2017-09-05T10:53:45.710Z,8004.00
2017-09-05T10:54:45.657Z,7880.00
2017-09-05T10:55:45.623Z,7816.00
2017-09-05T10:56:45.590Z,7688.00
2017-09-05T10:57:45.555Z,7780.00
2017-09-05T10:58:45.532Z,7800.00
2017-09-05T10:59:45.499Z,7720.00
2017-09-05T11:00:45.534Z,6248.00
2017-09-05T11:01:45.450Z,7476.00
2017-09-05T11:02:45.423Z,7632.00
2017-09-05T11:03:45.384Z,7772.00
2017-09-05T11:04:45.352Z,7876.00
2017-09-05T11:05:45.339Z,6776.00
2017-09-05T11:06:45.294Z,7684.00
2017-09-05T11:07:45.294Z,7652.00
2017-09-05T11:08:45.231Z,7716.00
2017-09-05T11:09:45.198Z,7680.00
2017-09-05T11:10:45.169Z,7688.00
2017-09-05T11:11:45.149Z,7612.00
2017-09-05T11:12:45.113Z,7632.00
2017-09-05T11:13:45.085Z,7640.00
2017-09-05T11:14:45.090Z,7604.00
2017-09-05T11:15:45.021Z,7616.00
2017-09-05T11:16:45.019Z,7656.00
2017-09-05T11:17:44.975Z,7600.00
2017-09-05T11:18:44.930Z,7660.00
2017-09-05T11:19:44.911Z,7680.00
2017-09-05T11:20:44.874Z,7712.00
2017-09-05T11:21:44.852Z,7592.00
2017-09-05T11:22:44.811Z,7656.00
2017-09-05T11:23:44.784Z,7624.00
2017-09-05T11:24:44.752Z,7640.00
2017-09-05T11:25:44.727Z,7608.00
2017-09-05T11:26:44.693Z,7620.00
2017-09-05T11:27:44.688Z,7676.00
2017-09-05T11:28:44.636Z,7676.00
2017-09-05T11:29:44.606Z,7560.00
2017-09-05T11:30:44.570Z,7548.00
2017-09-05T11:31:44.545Z,7676.00
2017-09-05T11:32:44.533Z,7496.00
2017-09-05T11:33:44.487Z,7492.00
2017-09-05T11:34:44.463Z,7416.00
2017-09-05T11:35:44.435Z,7444.00
2017-09-05T11:36:44.393Z,7456.00
2017-09-05T11:37:44.373Z,7436.00
2017-09-05T11:38:44.345Z,7416.00
2017-09-05T11:39:44.486Z,7352.00
2017-09-05T11:40:44.286Z,7352.00
2017-09-05T11:41:44.268Z,7368.00
2017-09-05T11:42:44.270Z,7408.00
2017-09-05T11:43:44.193Z,7392.00
2017-09-05T11:44:44.237Z,7208.00
2017-09-05T11:45:44.141Z,7156.00
2017-09-05T11:46:44.102Z,7120.00
2017-09-05T11:47:44.080Z,7176.00
2017-09-05T11:48:44.045Z,7260.00
2017-09-05T11:49:44.014Z,7300.00
2017-09-05T11:50:43.994Z,7224.00
2017-09-05T11:51:43.956Z,7228.00
2017-09-05T11:52:43.922Z,7228.00
2017-09-05T11:53:43.904Z,7296.00
2017-09-05T11:54:43.865Z,7316.00
2017-09-05T11:55:43.841Z,7324.00
2017-09-05T11:56:43.823Z,7388.00
2017-09-05T11:57:43.781Z,7548.00
2017-09-05T11:58:43.740Z,7624.00
2017-09-05T11:59:43.719Z,7684.00
2017-09-05T12:00:43.694Z,7676.00
2017-09-05T12:01:43.663Z,7728.00
2017-09-05T12:02:43.633Z,7596.00
2017-09-05T12:03:43.601Z,7632.00
2017-09-05T12:04:43.570Z,7688.00
2017-09-05T12:05:43.536Z,7724.00
2017-09-05T12:06:43.528Z,7772.00
2017-09-05T12:07:43.478Z,7752.00
2017-09-05T12:08:43.450Z,7804.00
2017-09-05T12:09:43.424Z,7736.00
2017-09-05T12:10:43.390Z,7780.00
2017-09-05T12:11:43.369Z,7760.00
2017-09-05T12:12:43.337Z,7724.00
2017-09-05T12:13:43.296Z,7660.00
2017-09-05T12:14:43.283Z,7352.00
2017-09-05T12:15:43.244Z,7668.00
2017-09-05T12:16:43.220Z,7668.00
2017-09-05T12:17:43.183Z,7596.00
2017-09-05T12:18:43.156Z,7616.00
2017-09-05T12:19:43.123Z,7744.00
2017-09-05T12:20:43.130Z,7712.00
2017-09-05T12:21:43.072Z,7664.00
2017-09-05T12:22:43.032Z,7516.00
2017-09-05T12:23:43.003Z,7476.00